Pahrump, Nevada Weather observations

Data are for observation ending at time listed.
 Day   Time    Ave.   Ave.  Ave.  Vector   Max.   Stn.    Total    Solar   Ave.  
  of    of     Air    Rel.  Wind   Wind    Wind   Baro.  Precip.   Rad.    Soil  
Year   Day     Temp.  Hum.  Speed  Dir.    Gust   Pres.                    Temp. 
2014   (PST)    F      %     mph   deg.    mph     mb.     in.     W/m2     F   
------------------------------------------------------------------------------
 330    5:00   37.4    29    1.6   124      2.4   930.4    0.00       0    48.9
 330    5:10   37.3    30    2.3   120      3.3   930.5    0.00       0    48.8
 330    5:20   37.1    30    2.0   123      2.7   930.5    0.00       0    48.8
 330    5:30   37.2    31    0.5   330      2.4   930.6    0.00       0    48.7
 330    5:40   36.2    33    0.9   311      1.9   930.7    0.00       0    48.6
 330    5:50   35.4    33    0.1    65      0.8   930.8    0.00       0    48.5
 330    6:00   35.4    34    0.3   181      1.1   930.7    0.00       0    48.5
 330    6:10   35.6    33    0.6   359      1.9   930.7    0.00       0    48.4
 330    6:20   34.5    32    1.7    28      2.8   930.8    0.00       2    48.4
 330    6:30   34.0    32    0.8    53      2.2   930.8    0.00       3    48.3
 330    6:40   34.3    32    0.3   146      1.4   930.8    0.00       3    48.2
 330    6:50   34.9    32    0.3   131      1.2   930.8    0.00      10    48.1
 330    7:00   37.4    30    0.6   344      2.0   930.9    0.00      22    48.1
 330    7:10   40.1    28    0.5    11      1.7   931.1    0.00      38    48.0
 330    7:20   41.9    26    0.4    57      1.5   931.3    0.00      73    48.0
 330    7:30   44.5    24    0.3   344      1.5   931.4    0.00     110    48.0
 330    7:40   44.5    24    0.7     7      1.6   931.6    0.00     147    48.0
 330    7:50   47.3    23    0.3    32      1.3   931.9    0.00     177    48.2
 330    8:00   49.4    22    0.4   293      1.2   932.3    0.00     206    48.3
 330    8:10   47.5    23    1.3   300      2.7   932.6    0.00     234    48.5
 330    8:20   48.3    22    1.1   295      2.3   933.0    0.00     264    48.7
 330    8:30   49.3    20    0.7    15      1.7   933.3    0.00     293    49.0
 330    8:40   49.9    19    0.5    56      2.1   933.5    0.00     322    49.3
 330    8:50   51.2    19    1.2   310      2.4   933.8    0.00     350    49.6
 330    9:00   50.8    19    1.4   299      3.3   934.1    0.00     378    49.9
 330    9:10   51.7    19    1.2   303      2.8   934.4    0.00     404    50.3
 330    9:20   51.3    19    1.0   322      1.7   934.6    0.00     429    50.6
 330    9:30   53.1    18    0.4   315      1.5   934.6    0.00     454    50.8
 330    9:40   55.9    17    0.4   354      1.7   934.7    0.00     251    51.0
 330    9:50   54.9    18    1.3   313      2.4   934.9    0.00     105    51.1
 330   10:00   54.0    19    2.0   315      3.1   934.8    0.00     492    51.2
 330   10:10   55.3    18    1.7   316      3.2   934.7    0.00     531    51.2
 330   10:20   57.5    16    1.5   307      2.8   934.7    0.00     551    51.2
 330   10:30   59.8    15    1.8   282      4.6   934.7    0.00     563    51.2
 330   10:40   58.5    15    2.3   313      5.1   934.7    0.00     577    51.3
 330   10:50   58.9    15    1.5   274      3.7   934.6    0.00     589    51.4
 330   11:00   60.5    14    1.4   241      3.7   934.6    0.00     599    51.5
 330   11:10   61.2    14    1.4   288      3.4   934.6    0.00     605    51.7
 330   11:20   62.3    13    0.9   165      2.9   934.6    0.00     611    52.1
 330   11:30   63.3    13    1.4   135      2.6   934.4    0.00     614    52.6
 330   11:40   63.3    13    1.1   150      2.9   934.2    0.00     617    53.1
 330   11:50   62.7    13    1.3   347      2.7   934.0    0.00     591    53.7
 330   12:00   63.5    13    1.2   148      3.1   933.9    0.00     613    54.2
 330   12:10   64.8    13    1.9   205      4.1   933.7    0.00     612    54.8
 330   12:20   64.7    13    1.2   232      3.4   933.6    0.00     607    55.4
 330   12:30   65.9    12    1.2   288      3.5   933.5    0.00     596    56.0
 330   12:40   65.5    13    1.6   272      5.3   933.3    0.00     571    56.5
 330   12:50   65.4    13    1.0   107      3.3   933.1    0.00     577    57.0
 330   13:00   65.1    13    1.2   125      3.9   932.8    0.00     565    57.3
 330   13:10   64.8    13    1.6   138      3.7   932.4    0.00     554    57.5
 330   13:20   65.5    13    1.0   267      3.4   932.1    0.00     537    57.5
 330   13:30   65.9    13    0.7   168      2.3   932.0    0.00     518    57.5
 330   13:40   65.9    13    1.3   232      3.7   931.8    0.00     500    57.4
 330   13:50   65.7    13    1.6   171      5.1   931.6    0.00     481    57.3
 330   14:00   65.8    13    0.4   267      2.4   931.5    0.00     458    57.1
 330   14:10   66.3    13    1.4   142      3.8   931.4    0.00     434    57.0
 330   14:20   66.3    13    1.1   224      2.9   931.3    0.00     411    56.9
 330   14:30   66.2    13    1.6   336      3.6   931.3    0.00     383    56.8
 330   14:40   66.2    13    1.0   318      2.6   931.2    0.00      50    56.7
 330   14:50   66.0    13    1.4    48      2.9   931.2    0.00      28    56.6
 330   15:00   66.5    13    1.8   146      3.7   931.1    0.00      25    56.5
 330   15:10   66.5    13    0.9   145      2.3   930.9    0.00      23    56.4
 330   15:20   66.2    13    0.4   205      1.5   930.9    0.00      23    56.3
 330   15:30   65.7    14    0.3    68      1.5   930.9    0.00      23    56.2
 330   15:40   65.6    14    0.3   166      1.7   930.8    0.00      22    56.1
 330   15:50   65.9    14    0.9   193      1.9   930.7    0.00      18    56.0
 330   16:00   66.0    14    1.3   191      2.4   930.7    0.00      17    55.9
 330   16:10   65.8    14    1.5   213      2.3   930.5    0.00      16    55.8
 330   16:20   64.7    16    1.2   254      1.9   930.5    0.00      11    55.7
 330   16:30   63.1    17    1.4   240      1.9   930.4    0.00      10    55.7
 330   16:40   61.5    19    0.4   236      1.1   930.3    0.00       4    55.6
 330   16:50   59.7    20    0.3   266      0.9   930.3    0.00       3    55.5
 330   17:00   58.5    20    0.3   150      2.0   930.2    0.00       2    55.4
 330   17:10   58.6    18    0.5    27      2.2   930.1    0.00       0    55.3
 330   17:20   58.6    17    0.8    73      1.5   930.1    0.00       0    55.1
 330   17:30   58.1    16    0.2   131      0.9   930.1    0.00       0    55.0
 330   17:40   57.5    17    0.8   105      2.4   930.1    0.00       0    54.9
 330   17:50   56.1    17    2.0   125      3.6   930.0    0.00       0    54.7
 330   18:00   55.4    17    1.8   124      2.9   930.0    0.00       0    54.6
 330   18:10   55.1    18    1.8   124      2.3   930.0    0.00       0    54.5
 330   18:20   54.5    18    1.5   141      2.3   929.9    0.00       0    54.4
 330   18:30   54.1    18    1.8   120      3.1   930.0    0.00       0    54.3
 330   18:40   53.7    18    1.9   159      3.1   929.9    0.00       0    54.2
 330   18:50   53.3    18    2.1   164      2.9   929.9    0.00       0    54.1
 330   19:00   53.2    18    1.9   136      2.9   929.9    0.00       0    54.0
 330   19:10   52.5    19    2.0   128      2.6   929.9    0.00       0    53.9
 330   19:20   52.2    20    1.2   119      2.3   929.9    0.00       0    53.8
 330   19:30   50.8    20    0.7    55      2.5   929.9    0.00       0    53.8
 330   19:40   49.9    21    1.3    28      2.9   930.0    0.00       0    53.7
 330   19:50   49.4    21    3.1    44      4.4   930.0    0.00       0    53.6
 330   20:00   50.0    21    1.0   102      2.6   929.9    0.00       0    53.5
 330   20:10   50.0    21    1.2   142      2.3   929.9    0.00       0    53.4
 330   20:20   50.2    22    1.6   159      2.3   929.9    0.00       0    53.3
 330   20:30   50.1    21    1.7   167      2.5   929.9    0.00       0    53.2
 330   20:40   49.5    22    1.1   229      2.2   930.0    0.00       0    53.1
 330   20:50   48.2    26    0.5   312      1.8   930.2    0.00       0    53.0
 330   21:00   47.6    23    1.7   125      2.4   930.2    0.00       0    53.0
 330   21:10   47.9    21    1.7   144      2.4   930.1    0.00       0    52.9
 330   21:20   47.6    21    2.1   128      3.4   930.0    0.00       0    52.8
 330   21:30   48.1    22    1.7   168      3.5   930.0    0.00       0    52.7
 330   21:40   48.0    22    1.7   162      2.3   930.0    0.00       0    52.6
 330   21:50   47.8    23    0.8   146      1.6   930.0    0.00       0    52.5
 330   22:00   47.1    23    1.0   128      2.1   929.9    0.00       0    52.4
 330   22:10   46.2    24    0.7    34      1.8   929.9    0.00       0    52.4
 330   22:20   45.9    23    0.7   104      1.5   929.9    0.00       0    52.3
 330   22:30   45.4    25    1.1    42      1.9   929.8    0.00       0    52.2
 330   22:40   45.9    24    0.8    74      2.1   929.7    0.00       0    52.1
 330   22:50   46.0    23    0.8   131      2.1   929.6    0.00       0    52.0
 330   23:00   45.8    24    1.6   173      2.3   929.5    0.00       0    51.9
 330   23:10   45.2    24    1.1   143      1.8   929.4    0.00       0    51.8
 330   23:20   44.8    25    1.2   173      1.8   929.3    0.00       0    51.8
 330   23:30   44.3    27    1.8   329      3.4   929.4    0.00       0    51.7
 330   23:40   43.6    26    1.7    36      2.6   929.4    0.00       0    51.6
 330   23:50   43.6    25    1.4    10      2.3   929.4    0.00       0    51.5
 331    0:00   43.9    25    1.1     6      2.6   929.4    0.00       0    51.5
 331    0:10   44.5    25    0.8   353      2.6   929.3    0.00       0    51.4
 331    0:20   44.0    24    0.8   108      1.5   929.2    0.00       0    51.3
 331    0:30   43.7    25    0.4   140      0.9   929.0    0.00       0    51.2
 331    0:40   43.8    26    0.8    14      1.6   928.9    0.00       0    51.1
 331    0:50   43.1    25    1.0   117      1.8   928.8    0.00       0    51.0
 331    1:00   42.0    26    0.6   144      2.0   928.7    0.00       0    51.0
 331    1:10   42.1    27    0.7   118      1.9   928.6    0.00       0    50.9
 331    1:20   42.0    26    0.7   115      1.8   928.7    0.00       0    50.8
 331    1:30   42.4    27    1.0   308      2.1   928.9    0.00       0    50.7
 331    1:40   41.4    31    1.4   254      2.8   928.9    0.00       0    50.7
 331    1:50   40.4    31    2.1   160      3.9   928.7    0.00       0    50.6
 331    2:00   41.8    29    1.7   159      2.6   928.7    0.00       0    50.5
 331    2:10   41.6    27    1.4   147      2.2   928.6    0.00       0    50.5
 331    2:20   41.4    28    1.8   155      2.9   928.6    0.00       0    50.4
 331    2:30   41.8    27    2.4   172      3.0   928.5    0.00       0    50.3
 331    2:40   41.9    28    1.2   110      2.3   928.4    0.00       0    50.2
 331    2:50   40.6    30    0.8   104      1.8   928.3    0.00       0    50.1
 331    3:00   40.6    29    0.3   135      1.6   928.1    0.00       0    50.1
 331    3:10   40.6    30    1.4   304      3.1   928.0    0.00       0    50.0
 331    3:20   40.1    29    1.2   326      3.0   928.1    0.00       0    50.0
 331    3:30   38.1    32    2.0   322      3.7   928.2    0.00       0    49.9
 331    3:40   36.3    32    1.0    29      2.9   928.2    0.00       0    49.8
 331    3:50   36.6    31    1.8   159      2.6   928.1    0.00       0    49.7
 331    4:00   37.8    31    1.9   181      2.6   927.9    0.00       0    49.6
 331    4:10   38.5    30    0.9   168      1.8   927.8    0.00       0    49.6
 331    4:20   38.3    32    1.2   323      3.1   927.9    0.00       0    49.5
 331    4:30   37.3    31    1.8    65      2.7   927.8    0.00       0    49.4
 331    4:40   37.6    30    0.4    92      1.5   927.7    0.00       0    49.3
 331    4:50   38.4    30    0.8    52      2.1   927.7    0.00       0    49.3

Return to Pahrump, Nevada graphs page.


Western Regional Climate Center,wrcc@dri.edu